sensor_id;sensor_type;location;lat;lon;timestamp;temperature;humidity
20013;DHT22;76844;42.852;23.042;2024-03-22T00:01:06;4.20;60.50
20013;DHT22;76844;42.852;23.042;2024-03-22T00:03:35;4.30;60.00
20013;DHT22;76844;42.852;23.042;2024-03-22T00:06:02;4.20;61.30
20013;DHT22;76844;42.852;23.042;2024-03-22T00:08:30;4.30;60.30
20013;DHT22;76844;42.852;23.042;2024-03-22T00:10:58;4.30;59.80
20013;DHT22;76844;42.852;23.042;2024-03-22T00:13:28;4.40;59.60
20013;DHT22;76844;42.852;23.042;2024-03-22T00:15:56;4.30;59.00
20013;DHT22;76844;42.852;23.042;2024-03-22T00:18:24;4.30;59.10
20013;DHT22;76844;42.852;23.042;2024-03-22T00:20:52;4.30;58.80
20013;DHT22;76844;42.852;23.042;2024-03-22T00:23:22;4.30;59.30
20013;DHT22;76844;42.852;23.042;2024-03-22T00:25:49;4.30;59.00
20013;DHT22;76844;42.852;23.042;2024-03-22T00:28:17;4.20;58.90
20013;DHT22;76844;42.852;23.042;2024-03-22T00:30:46;4.20;58.80
20013;DHT22;76844;42.852;23.042;2024-03-22T00:33:15;4.20;59.20
20013;DHT22;76844;42.852;23.042;2024-03-22T00:35:42;4.10;59.40
20013;DHT22;76844;42.852;23.042;2024-03-22T00:38:10;4.10;59.20
20013;DHT22;76844;42.852;23.042;2024-03-22T00:40:38;4.00;59.40
20013;DHT22;76844;42.852;23.042;2024-03-22T00:43:06;4.00;59.50
20013;DHT22;76844;42.852;23.042;2024-03-22T00:45:34;3.90;59.60
20013;DHT22;76844;42.852;23.042;2024-03-22T00:48:05;3.90;59.90
20013;DHT22;76844;42.852;23.042;2024-03-22T00:50:32;3.90;59.90
20013;DHT22;76844;42.852;23.042;2024-03-22T00:53:01;3.90;59.90
20013;DHT22;76844;42.852;23.042;2024-03-22T00:55:29;3.80;59.80
20013;DHT22;76844;42.852;23.042;2024-03-22T00:57:59;3.90;60.40
20013;DHT22;76844;42.852;23.042;2024-03-22T01:00:26;3.90;60.30
20013;DHT22;76844;42.852;23.042;2024-03-22T01:02:55;3.90;60.30
20013;DHT22;76844;42.852;23.042;2024-03-22T01:05:24;3.90;60.00
20013;DHT22;76844;42.852;23.042;2024-03-22T01:07:52;3.90;60.10
20013;DHT22;76844;42.852;23.042;2024-03-22T01:10:20;3.80;60.40
20013;DHT22;76844;42.852;23.042;2024-03-22T01:12:48;3.70;60.30
20013;DHT22;76844;42.852;23.042;2024-03-22T01:15:15;3.70;60.50
20013;DHT22;76844;42.852;23.042;2024-03-22T01:17:44;3.70;60.30
20013;DHT22;76844;42.852;23.042;2024-03-22T01:20:11;3.60;60.70
20013;DHT22;76844;42.852;23.042;2024-03-22T01:22:41;3.50;61.20
20013;DHT22;76844;42.852;23.042;2024-03-22T01:25:08;3.40;61.40
20013;DHT22;76844;42.852;23.042;2024-03-22T01:27:38;3.40;61.20
20013;DHT22;76844;42.852;23.042;2024-03-22T01:30:06;3.40;61.40
20013;DHT22;76844;42.852;23.042;2024-03-22T01:32:35;3.30;61.10
20013;DHT22;76844;42.852;23.042;2024-03-22T01:35:02;3.30;61.60
20013;DHT22;76844;42.852;23.042;2024-03-22T01:37:31;3.30;61.70
20013;DHT22;76844;42.852;23.042;2024-03-22T01:40:03;3.20;62.00
20013;DHT22;76844;42.852;23.042;2024-03-22T01:42:32;3.20;61.90
20013;DHT22;76844;42.852;23.042;2024-03-22T01:44:59;3.20;61.80
20013;DHT22;76844;42.852;23.042;2024-03-22T01:47:28;3.20;61.70
20013;DHT22;76844;42.852;23.042;2024-03-22T01:49:57;3.20;62.00
20013;DHT22;76844;42.852;23.042;2024-03-22T01:52:25;3.20;62.00
20013;DHT22;76844;42.852;23.042;2024-03-22T01:54:53;3.20;62.20
20013;DHT22;76844;42.852;23.042;2024-03-22T01:57:23;3.00;62.40
20013;DHT22;76844;42.852;23.042;2024-03-22T01:59:51;3.00;62.40
20013;DHT22;76844;42.852;23.042;2024-03-22T02:02:24;3.10;62.00
20013;DHT22;76844;42.852;23.042;2024-03-22T02:04:53;3.10;61.90
20013;DHT22;76844;42.852;23.042;2024-03-22T02:07:20;3.20;62.10
20013;DHT22;76844;42.852;23.042;2024-03-22T02:09:49;3.20;61.90
20013;DHT22;76844;42.852;23.042;2024-03-22T02:12:16;3.10;63.20
20013;DHT22;76844;42.852;23.042;2024-03-22T02:14:47;3.10;62.70
20013;DHT22;76844;42.852;23.042;2024-03-22T02:17:14;3.00;63.00
20013;DHT22;76844;42.852;23.042;2024-03-22T02:19:42;3.00;63.20
20013;DHT22;76844;42.852;23.042;2024-03-22T02:22:10;2.80;63.80
20013;DHT22;76844;42.852;23.042;2024-03-22T02:24:39;2.70;63.90
20013;DHT22;76844;42.852;23.042;2024-03-22T02:27:07;2.50;64.00
20013;DHT22;76844;42.852;23.042;2024-03-22T02:29:35;2.40;64.00
20013;DHT22;76844;42.852;23.042;2024-03-22T02:32:02;2.40;64.30
20013;DHT22;76844;42.852;23.042;2024-03-22T02:34:31;2.40;64.40
20013;DHT22;76844;42.852;23.042;2024-03-22T02:37:02;2.40;64.50
20013;DHT22;76844;42.852;23.042;2024-03-22T02:39:31;2.50;64.40
20013;DHT22;76844;42.852;23.042;2024-03-22T02:42:00;2.50;64.80
20013;DHT22;76844;42.852;23.042;2024-03-22T02:44:29;2.50;64.20
20013;DHT22;76844;42.852;23.042;2024-03-22T02:46:56;2.60;64.30
20013;DHT22;76844;42.852;23.042;2024-03-22T02:49:25;2.60;64.40
20013;DHT22;76844;42.852;23.042;2024-03-22T02:51:52;2.70;64.70
20013;DHT22;76844;42.852;23.042;2024-03-22T02:54:21;2.70;64.20
20013;DHT22;76844;42.852;23.042;2024-03-22T02:56:48;2.80;63.70
20013;DHT22;76844;42.852;23.042;2024-03-22T02:59:18;2.80;64.10
20013;DHT22;76844;42.852;23.042;2024-03-22T03:01:46;2.60;65.90
20013;DHT22;76844;42.852;23.042;2024-03-22T03:04:14;2.50;65.90
20013;DHT22;76844;42.852;23.042;2024-03-22T03:06:41;2.60;65.00
20013;DHT22;76844;42.852;23.042;2024-03-22T03:09:11;2.70;65.00
20013;DHT22;76844;42.852;23.042;2024-03-22T03:11:38;2.70;64.60
20013;DHT22;76844;42.852;23.042;2024-03-22T03:14:07;2.80;64.40
20013;DHT22;76844;42.852;23.042;2024-03-22T03:16:36;2.90;64.10
20013;DHT22;76844;42.852;23.042;2024-03-22T03:19:05;2.90;63.50
20013;DHT22;76844;42.852;23.042;2024-03-22T03:21:32;2.90;63.80
20013;DHT22;76844;42.852;23.042;2024-03-22T03:24:01;2.90;63.60
20013;DHT22;76844;42.852;23.042;2024-03-22T03:26:28;2.90;63.90
20013;DHT22;76844;42.852;23.042;2024-03-22T03:28:56;2.80;63.40
20013;DHT22;76844;42.852;23.042;2024-03-22T03:31:24;2.80;63.40
20013;DHT22;76844;42.852;23.042;2024-03-22T03:33:54;2.80;63.70
20013;DHT22;76844;42.852;23.042;2024-03-22T03:36:21;2.80;63.80
20013;DHT22;76844;42.852;23.042;2024-03-22T03:38:50;2.70;63.80
20013;DHT22;76844;42.852;23.042;2024-03-22T03:41:17;2.70;64.00
20013;DHT22;76844;42.852;23.042;2024-03-22T03:43:46;2.70;64.30
20013;DHT22;76844;42.852;23.042;2024-03-22T03:46:13;2.60;64.70
20013;DHT22;76844;42.852;23.042;2024-03-22T03:48:42;2.60;64.50
20013;DHT22;76844;42.852;23.042;2024-03-22T03:51:10;2.60;64.60
20013;DHT22;76844;42.852;23.042;2024-03-22T03:53:39;2.60;64.40
20013;DHT22;76844;42.852;23.042;2024-03-22T03:56:06;2.40;66.10
20013;DHT22;76844;42.852;23.042;2024-03-22T03:58:35;2.30;66.80
20013;DHT22;76844;42.852;23.042;2024-03-22T04:01:05;2.10;66.60
20013;DHT22;76844;42.852;23.042;2024-03-22T04:03:33;2.10;66.40
20013;DHT22;76844;42.852;23.042;2024-03-22T04:06:01;2.10;66.40
20013;DHT22;76844;42.852;23.042;2024-03-22T04:08:32;2.20;66.20
20013;DHT22;76844;42.852;23.042;2024-03-22T04:10:59;2.20;66.20
20013;DHT22;76844;42.852;23.042;2024-03-22T04:13:27;2.10;65.90
20013;DHT22;76844;42.852;23.042;2024-03-22T04:15:58;2.10;66.70
20013;DHT22;76844;42.852;23.042;2024-03-22T04:18:27;2.00;66.90
20013;DHT22;76844;42.852;23.042;2024-03-22T04:20:55;2.10;67.80
20013;DHT22;76844;42.852;23.042;2024-03-22T04:23:24;2.10;66.20
20013;DHT22;76844;42.852;23.042;2024-03-22T04:25:57;2.10;66.80
20013;DHT22;76844;42.852;23.042;2024-03-22T04:28:25;1.90;67.30
20013;DHT22;76844;42.852;23.042;2024-03-22T04:30:58;2.00;67.50
20013;DHT22;76844;42.852;23.042;2024-03-22T04:33:28;2.00;68.00
20013;DHT22;76844;42.852;23.042;2024-03-22T04:35:56;2.00;67.80
20013;DHT22;76844;42.852;23.042;2024-03-22T04:38:25;2.00;67.30
20013;DHT22;76844;42.852;23.042;2024-03-22T04:40:54;1.90;67.20
20013;DHT22;76844;42.852;23.042;2024-03-22T04:43:24;1.90;67.30
20013;DHT22;76844;42.852;23.042;2024-03-22T04:45:53;1.80;67.70
20013;DHT22;76844;42.852;23.042;2024-03-22T04:48:21;1.80;68.20
20013;DHT22;76844;42.852;23.042;2024-03-22T04:50:51;1.80;68.50
20013;DHT22;76844;42.852;23.042;2024-03-22T04:53:20;1.70;68.70
20013;DHT22;76844;42.852;23.042;2024-03-22T04:55:49;1.60;68.90
20013;DHT22;76844;42.852;23.042;2024-03-22T04:58:18;1.60;68.70
20013;DHT22;76844;42.852;23.042;2024-03-22T05:00:55;1.50;69.10
20013;DHT22;76844;42.852;23.042;2024-03-22T05:03:23;1.50;69.40
20013;DHT22;76844;42.852;23.042;2024-03-22T05:05:52;1.50;69.60
20013;DHT22;76844;42.852;23.042;2024-03-22T05:08:19;1.70;70.60
20013;DHT22;76844;42.852;23.042;2024-03-22T05:10:47;2.00;70.20
20013;DHT22;76844;42.852;23.042;2024-03-22T05:13:15;2.20;69.60
20013;DHT22;76844;42.852;23.042;2024-03-22T05:15:44;2.50;69.60
20013;DHT22;76844;42.852;23.042;2024-03-22T05:18:13;2.60;69.00
20013;DHT22;76844;42.852;23.042;2024-03-22T05:20:41;2.80;68.20
20013;DHT22;76844;42.852;23.042;2024-03-22T05:23:08;3.00;67.90
20013;DHT22;76844;42.852;23.042;2024-03-22T05:25:36;3.00;67.60
20013;DHT22;76844;42.852;23.042;2024-03-22T05:28:04;3.10;67.30
20013;DHT22;76844;42.852;23.042;2024-03-22T05:30:40;3.30;67.20
20013;DHT22;76844;42.852;23.042;2024-03-22T05:33:07;3.50;67.20
20013;DHT22;76844;42.852;23.042;2024-03-22T05:35:38;3.70;66.80
20013;DHT22;76844;42.852;23.042;2024-03-22T05:38:05;4.00;66.00
20013;DHT22;76844;42.852;23.042;2024-03-22T05:40:36;4.20;64.80
20013;DHT22;76844;42.852;23.042;2024-03-22T05:43:05;4.40;64.30
20013;DHT22;76844;42.852;23.042;2024-03-22T05:45:33;4.50;63.60
20013;DHT22;76844;42.852;23.042;2024-03-22T05:48:01;4.60;63.00
20013;DHT22;76844;42.852;23.042;2024-03-22T05:50:29;4.70;62.70
20013;DHT22;76844;42.852;23.042;2024-03-22T05:52:58;4.80;62.40
20013;DHT22;76844;42.852;23.042;2024-03-22T05:55:27;5.10;61.90
20013;DHT22;76844;42.852;23.042;2024-03-22T05:57:58;5.40;61.40
20013;DHT22;76844;42.852;23.042;2024-03-22T06:00:26;5.60;60.80
20013;DHT22;76844;42.852;23.042;2024-03-22T06:02:53;5.80;59.60
20013;DHT22;76844;42.852;23.042;2024-03-22T06:05:21;6.00;59.10
20013;DHT22;76844;42.852;23.042;2024-03-22T06:07:49;6.10;58.60
20013;DHT22;76844;42.852;23.042;2024-03-22T06:10:20;6.30;58.40
20013;DHT22;76844;42.852;23.042;2024-03-22T06:12:47;6.30;57.80
20013;DHT22;76844;42.852;23.042;2024-03-22T06:15:15;6.50;57.20
20013;DHT22;76844;42.852;23.042;2024-03-22T06:17:42;6.60;57.20
20013;DHT22;76844;42.852;23.042;2024-03-22T06:20:12;6.80;57.20
20013;DHT22;76844;42.852;23.042;2024-03-22T06:22:40;6.80;56.40
20013;DHT22;76844;42.852;23.042;2024-03-22T06:25:09;6.90;56.10
20013;DHT22;76844;42.852;23.042;2024-03-22T06:27:38;7.20;55.60
20013;DHT22;76844;42.852;23.042;2024-03-22T06:30:08;7.50;55.10
20013;DHT22;76844;42.852;23.042;2024-03-22T06:32:35;7.70;54.20
20013;DHT22;76844;42.852;23.042;2024-03-22T06:35:04;7.90;53.30
20013;DHT22;76844;42.852;23.042;2024-03-22T06:37:32;8.10;52.90
20013;DHT22;76844;42.852;23.042;2024-03-22T06:40:00;8.00;51.50
20013;DHT22;76844;42.852;23.042;2024-03-22T06:42:30;7.90;51.80
20013;DHT22;76844;42.852;23.042;2024-03-22T06:45:00;7.90;51.80
20013;DHT22;76844;42.852;23.042;2024-03-22T06:47:30;8.10;52.60
20013;DHT22;76844;42.852;23.042;2024-03-22T06:49:59;8.20;52.40
20013;DHT22;76844;42.852;23.042;2024-03-22T06:52:26;8.50;52.20
20013;DHT22;76844;42.852;23.042;2024-03-22T06:54:55;8.60;51.60
20013;DHT22;76844;42.852;23.042;2024-03-22T06:57:22;9.00;51.30
20013;DHT22;76844;42.852;23.042;2024-03-22T06:59:51;9.30;50.80
20013;DHT22;76844;42.852;23.042;2024-03-22T07:02:20;9.70;50.20
20013;DHT22;76844;42.852;23.042;2024-03-22T07:04:48;9.90;49.00
20013;DHT22;76844;42.852;23.042;2024-03-22T07:07:15;10.20;48.40
20013;DHT22;76844;42.852;23.042;2024-03-22T07:09:46;10.40;48.10
20013;DHT22;76844;42.852;23.042;2024-03-22T07:12:14;10.80;47.20
20013;DHT22;76844;42.852;23.042;2024-03-22T07:14:43;11.00;46.50
20013;DHT22;76844;42.852;23.042;2024-03-22T07:17:10;11.20;45.40
20013;DHT22;76844;42.852;23.042;2024-03-22T07:19:40;11.40;45.50
20013;DHT22;76844;42.852;23.042;2024-03-22T07:22:08;11.50;44.30
20013;DHT22;76844;42.852;23.042;2024-03-22T07:24:37;11.20;43.50
20013;DHT22;76844;42.852;23.042;2024-03-22T07:27:04;11.80;45.30
20013;DHT22;76844;42.852;23.042;2024-03-22T07:29:33;12.10;43.80
20013;DHT22;76844;42.852;23.042;2024-03-22T07:32:00;12.60;43.90
20013;DHT22;76844;42.852;23.042;2024-03-22T07:34:30;12.90;43.50
20013;DHT22;76844;42.852;23.042;2024-03-22T07:36:59;13.00;41.50
20013;DHT22;76844;42.852;23.042;2024-03-22T07:39:27;13.00;41.50
20013;DHT22;76844;42.852;23.042;2024-03-22T07:41:56;13.40;42.00
20013;DHT22;76844;42.852;23.042;2024-03-22T07:44:25;13.70;41.30
20013;DHT22;76844;42.852;23.042;2024-03-22T07:46:53;13.70;41.00
20013;DHT22;76844;42.852;23.042;2024-03-22T07:49:22;14.00;41.20
20013;DHT22;76844;42.852;23.042;2024-03-22T07:51:49;14.20;40.50
20013;DHT22;76844;42.852;23.042;2024-03-22T07:54:19;14.60;40.80
20013;DHT22;76844;42.852;23.042;2024-03-22T07:56:47;14.80;39.80
20013;DHT22;76844;42.852;23.042;2024-03-22T07:59:16;15.20;39.50
20013;DHT22;76844;42.852;23.042;2024-03-22T08:01:43;15.30;38.90
20013;DHT22;76844;42.852;23.042;2024-03-22T08:04:13;15.40;38.60
20013;DHT22;76844;42.852;23.042;2024-03-22T08:06:41;15.70;38.80
20013;DHT22;76844;42.852;23.042;2024-03-22T08:09:10;15.60;37.50
20013;DHT22;76844;42.852;23.042;2024-03-22T08:11:39;16.00;38.20
20013;DHT22;76844;42.852;23.042;2024-03-22T08:14:08;16.00;37.20
20013;DHT22;76844;42.852;23.042;2024-03-22T08:16:35;16.30;37.00
20013;DHT22;76844;42.852;23.042;2024-03-22T08:19:04;16.70;36.40
20013;DHT22;76844;42.852;23.042;2024-03-22T08:21:31;17.00;35.90
20013;DHT22;76844;42.852;23.042;2024-03-22T08:23:59;17.10;35.20
20013;DHT22;76844;42.852;23.042;2024-03-22T08:26:27;17.10;35.30
20013;DHT22;76844;42.852;23.042;2024-03-22T08:28:56;17.30;35.30
20013;DHT22;76844;42.852;23.042;2024-03-22T08:31:24;17.40;35.50
20013;DHT22;76844;42.852;23.042;2024-03-22T08:33:55;17.80;34.80
20013;DHT22;76844;42.852;23.042;2024-03-22T08:36:22;18.30;34.40
20013;DHT22;76844;42.852;23.042;2024-03-22T08:38:52;18.70;33.40
20013;DHT22;76844;42.852;23.042;2024-03-22T08:41:19;18.60;32.50
20013;DHT22;76844;42.852;23.042;2024-03-22T08:43:48;18.50;33.20
20013;DHT22;76844;42.852;23.042;2024-03-22T08:46:16;18.50;33.40
20013;DHT22;76844;42.852;23.042;2024-03-22T08:48:45;18.40;31.80
20013;DHT22;76844;42.852;23.042;2024-03-22T08:51:12;18.30;32.20
20013;DHT22;76844;42.852;23.042;2024-03-22T08:53:41;18.00;31.70
20013;DHT22;76844;42.852;23.042;2024-03-22T08:56:08;18.20;33.10
20013;DHT22;76844;42.852;23.042;2024-03-22T08:58:37;18.50;33.20
20013;DHT22;76844;42.852;23.042;2024-03-22T09:01:05;18.30;32.50
20013;DHT22;76844;42.852;23.042;2024-03-22T09:03:38;18.40;32.50
20013;DHT22;76844;42.852;23.042;2024-03-22T09:06:06;18.70;32.00
20013;DHT22;76844;42.852;23.042;2024-03-22T09:08:35;19.00;32.80
20013;DHT22;76844;42.852;23.042;2024-03-22T09:11:02;19.00;31.50
20013;DHT22;76844;42.852;23.042;2024-03-22T09:13:30;19.00;31.90
20013;DHT22;76844;42.852;23.042;2024-03-22T09:15:57;19.40;31.70
20013;DHT22;76844;42.852;23.042;2024-03-22T09:18:26;19.50;32.00
20013;DHT22;76844;42.852;23.042;2024-03-22T09:20:55;19.80;30.50
20013;DHT22;76844;42.852;23.042;2024-03-22T09:23:24;19.70;31.10
20013;DHT22;76844;42.852;23.042;2024-03-22T09:25:52;20.00;29.90
20013;DHT22;76844;42.852;23.042;2024-03-22T09:28:20;20.00;30.10
20013;DHT22;76844;42.852;23.042;2024-03-22T09:30:47;20.00;29.60
20013;DHT22;76844;42.852;23.042;2024-03-22T09:33:17;19.90;29.80
20013;DHT22;76844;42.852;23.042;2024-03-22T09:35:44;19.80;29.70
20013;DHT22;76844;42.852;23.042;2024-03-22T09:38:14;19.50;30.80
20013;DHT22;76844;42.852;23.042;2024-03-22T09:40:42;19.50;29.40
20013;DHT22;76844;42.852;23.042;2024-03-22T09:43:12;18.70;31.60
20013;DHT22;76844;42.852;23.042;2024-03-22T09:45:46;19.00;31.40
20013;DHT22;76844;42.852;23.042;2024-03-22T09:48:15;19.20;30.40
20013;DHT22;76844;42.852;23.042;2024-03-22T09:50:43;19.80;30.80
20013;DHT22;76844;42.852;23.042;2024-03-22T09:53:14;19.90;30.10
20013;DHT22;76844;42.852;23.042;2024-03-22T09:55:46;20.00;29.50
20013;DHT22;76844;42.852;23.042;2024-03-22T09:58:15;20.00;29.40
20013;DHT22;76844;42.852;23.042;2024-03-22T10:00:44;20.40;29.80
20013;DHT22;76844;42.852;23.042;2024-03-22T10:03:13;19.90;29.00
20013;DHT22;76844;42.852;23.042;2024-03-22T10:05:40;20.60;29.80
20013;DHT22;76844;42.852;23.042;2024-03-22T10:08:10;20.70;29.30
20013;DHT22;76844;42.852;23.042;2024-03-22T10:10:42;20.80;29.00
20013;DHT22;76844;42.852;23.042;2024-03-22T10:13:11;20.80;28.60
20013;DHT22;76844;42.852;23.042;2024-03-22T10:15:38;20.20;27.90
20013;DHT22;76844;42.852;23.042;2024-03-22T10:18:06;20.60;29.30
20013;DHT22;76844;42.852;23.042;2024-03-22T10:20:35;20.70;29.00
20013;DHT22;76844;42.852;23.042;2024-03-22T10:23:04;20.90;28.80
20013;DHT22;76844;42.852;23.042;2024-03-22T10:25:32;21.00;29.00
20013;DHT22;76844;42.852;23.042;2024-03-22T10:28:03;21.30;28.40
20013;DHT22;76844;42.852;23.042;2024-03-22T10:30:31;21.50;28.20
20013;DHT22;76844;42.852;23.042;2024-03-22T10:33:04;21.60;27.70
20013;DHT22;76844;42.852;23.042;2024-03-22T10:35:33;21.80;27.70
20013;DHT22;76844;42.852;23.042;2024-03-22T10:38:03;21.60;27.90
20013;DHT22;76844;42.852;23.042;2024-03-22T10:40:31;21.70;28.10
20013;DHT22;76844;42.852;23.042;2024-03-22T10:43:02;21.50;27.90
20013;DHT22;76844;42.852;23.042;2024-03-22T10:45:31;21.10;27.70
20013;DHT22;76844;42.852;23.042;2024-03-22T10:48:03;20.80;27.90
20013;DHT22;76844;42.852;23.042;2024-03-22T10:50:33;20.40;29.00
20013;DHT22;76844;42.852;23.042;2024-03-22T10:53:06;19.90;29.40
20013;DHT22;76844;42.852;23.042;2024-03-22T10:55:37;20.10;29.70
20013;DHT22;76844;42.852;23.042;2024-03-22T10:58:07;19.90;29.00
20013;DHT22;76844;42.852;23.042;2024-03-22T11:00:36;19.90;28.90
20013;DHT22;76844;42.852;23.042;2024-03-22T11:03:04;19.70;29.40
20013;DHT22;76844;42.852;23.042;2024-03-22T11:05:34;19.50;29.20
20013;DHT22;76844;42.852;23.042;2024-03-22T11:08:02;19.10;29.50
20013;DHT22;76844;42.852;23.042;2024-03-22T11:10:34;18.80;30.70
20013;DHT22;76844;42.852;23.042;2024-03-22T11:13:02;19.00;30.50
20013;DHT22;76844;42.852;23.042;2024-03-22T11:15:33;19.50;29.80
20013;DHT22;76844;42.852;23.042;2024-03-22T11:18:00;19.70;29.00
20013;DHT22;76844;42.852;23.042;2024-03-22T11:20:29;19.20;29.80
20013;DHT22;76844;42.852;23.042;2024-03-22T11:22:58;19.50;29.50
20013;DHT22;76844;42.852;23.042;2024-03-22T11:25:27;20.00;29.60
20013;DHT22;76844;42.852;23.042;2024-03-22T11:27:54;20.70;28.30
20013;DHT22;76844;42.852;23.042;2024-03-22T11:30:24;21.00;28.30
20013;DHT22;76844;42.852;23.042;2024-03-22T11:32:54;20.60;27.00
20013;DHT22;76844;42.852;23.042;2024-03-22T11:35:23;21.60;28.20
20013;DHT22;76844;42.852;23.042;2024-03-22T11:37:51;22.00;27.60
20013;DHT22;76844;42.852;23.042;2024-03-22T11:40:20;22.00;27.20
20013;DHT22;76844;42.852;23.042;2024-03-22T11:42:50;22.20;27.30
20013;DHT22;76844;42.852;23.042;2024-03-22T11:45:20;22.00;26.80
20013;DHT22;76844;42.852;23.042;2024-03-22T11:47:48;21.10;27.20
20013;DHT22;76844;42.852;23.042;2024-03-22T11:50:19;20.40;27.80
20013;DHT22;76844;42.852;23.042;2024-03-22T11:52:47;19.50;28.80
20013;DHT22;76844;42.852;23.042;2024-03-22T11:55:15;19.30;29.30
20013;DHT22;76844;42.852;23.042;2024-03-22T11:57:48;18.90;29.40
20013;DHT22;76844;42.852;23.042;2024-03-22T12:00:19;18.20;30.00
20013;DHT22;76844;42.852;23.042;2024-03-22T12:02:49;17.90;31.00
20013;DHT22;76844;42.852;23.042;2024-03-22T12:05:19;17.80;31.20
20013;DHT22;76844;42.852;23.042;2024-03-22T12:07:47;17.40;30.40
20013;DHT22;76844;42.852;23.042;2024-03-22T12:10:15;17.20;30.70
20013;DHT22;76844;42.852;23.042;2024-03-22T12:12:44;17.00;31.20
20013;DHT22;76844;42.852;23.042;2024-03-22T12:15:14;16.60;31.70
20013;DHT22;76844;42.852;23.042;2024-03-22T12:17:41;16.40;32.40
20013;DHT22;76844;42.852;23.042;2024-03-22T12:20:11;16.10;32.60
20013;DHT22;76844;42.852;23.042;2024-03-22T12:22:41;16.00;33.00
20013;DHT22;76844;42.852;23.042;2024-03-22T12:25:09;16.00;32.90
20013;DHT22;76844;42.852;23.042;2024-03-22T12:27:38;16.00;33.10
20013;DHT22;76844;42.852;23.042;2024-03-22T12:30:07;15.90;32.50
20013;DHT22;76844;42.852;23.042;2024-03-22T12:32:35;16.00;32.50
20013;DHT22;76844;42.852;23.042;2024-03-22T12:35:04;15.60;33.20
20013;DHT22;76844;42.852;23.042;2024-03-22T12:37:32;15.40;33.10
20013;DHT22;76844;42.852;23.042;2024-03-22T12:40:02;15.70;34.70
20013;DHT22;76844;42.852;23.042;2024-03-22T12:42:30;16.70;34.00
20013;DHT22;76844;42.852;23.042;2024-03-22T12:44:59;17.80;32.30
20013;DHT22;76844;42.852;23.042;2024-03-22T12:47:30;18.70;31.40
20013;DHT22;76844;42.852;23.042;2024-03-22T12:49:59;19.70;30.00
20013;DHT22;76844;42.852;23.042;2024-03-22T12:52:27;20.20;29.60
20013;DHT22;76844;42.852;23.042;2024-03-22T12:54:56;20.20;29.20
20013;DHT22;76844;42.852;23.042;2024-03-22T12:57:25;20.00;27.60
20013;DHT22;76844;42.852;23.042;2024-03-22T12:59:54;21.00;28.50
20013;DHT22;76844;42.852;23.042;2024-03-22T13:02:21;21.70;28.40
20013;DHT22;76844;42.852;23.042;2024-03-22T13:04:50;21.50;26.20
20013;DHT22;76844;42.852;23.042;2024-03-22T13:07:17;21.40;26.50
20013;DHT22;76844;42.852;23.042;2024-03-22T13:09:46;20.90;25.60
20013;DHT22;76844;42.852;23.042;2024-03-22T13:12:13;21.60;27.00
20013;DHT22;76844;42.852;23.042;2024-03-22T13:14:44;21.40;27.30
20013;DHT22;76844;42.852;23.042;2024-03-22T13:17:11;20.70;26.40
20013;DHT22;76844;42.852;23.042;2024-03-22T13:19:40;20.30;26.50
20013;DHT22;76844;42.852;23.042;2024-03-22T13:22:07;19.60;26.80
20013;DHT22;76844;42.852;23.042;2024-03-22T13:24:36;20.50;27.50
20013;DHT22;76844;42.852;23.042;2024-03-22T13:27:04;20.20;26.50
20013;DHT22;76844;42.852;23.042;2024-03-22T13:29:33;20.30;27.10
20013;DHT22;76844;42.852;23.042;2024-03-22T13:32:04;20.50;27.20
20013;DHT22;76844;42.852;23.042;2024-03-22T13:34:34;20.60;26.80
20013;DHT22;76844;42.852;23.042;2024-03-22T13:37:03;20.40;26.50
20013;DHT22;76844;42.852;23.042;2024-03-22T13:39:31;20.00;26.70
20013;DHT22;76844;42.852;23.042;2024-03-22T13:42:01;19.70;26.70
20013;DHT22;76844;42.852;23.042;2024-03-22T13:44:32;19.60;27.10
20013;DHT22;76844;42.852;23.042;2024-03-22T13:47:01;19.40;26.90
20013;DHT22;76844;42.852;23.042;2024-03-22T13:49:29;19.00;26.60
20013;DHT22;76844;42.852;23.042;2024-03-22T13:51:58;18.60;27.20
20013;DHT22;76844;42.852;23.042;2024-03-22T13:54:26;18.30;27.30
20013;DHT22;76844;42.852;23.042;2024-03-22T13:56:56;18.20;28.10
20013;DHT22;76844;42.852;23.042;2024-03-22T13:59:23;17.80;28.30
20013;DHT22;76844;42.852;23.042;2024-03-22T14:01:52;17.70;28.40
20013;DHT22;76844;42.852;23.042;2024-03-22T14:04:19;17.60;28.30
20013;DHT22;76844;42.852;23.042;2024-03-22T14:06:50;17.60;28.20
20013;DHT22;76844;42.852;23.042;2024-03-22T14:09:17;17.50;28.80
20013;DHT22;76844;42.852;23.042;2024-03-22T14:11:46;17.00;28.60
20013;DHT22;76844;42.852;23.042;2024-03-22T14:14:15;16.90;29.00
20013;DHT22;76844;42.852;23.042;2024-03-22T14:16:45;16.60;29.00
20013;DHT22;76844;42.852;23.042;2024-03-22T14:19:12;16.40;29.50
20013;DHT22;76844;42.852;23.042;2024-03-22T14:21:42;16.20;30.00
20013;DHT22;76844;42.852;23.042;2024-03-22T14:24:11;16.10;30.00
20013;DHT22;76844;42.852;23.042;2024-03-22T14:26:40;16.10;30.40
20013;DHT22;76844;42.852;23.042;2024-03-22T14:29:09;15.80;30.20
20013;DHT22;76844;42.852;23.042;2024-03-22T14:31:38;15.50;30.90
20013;DHT22;76844;42.852;23.042;2024-03-22T14:34:06;15.40;31.50
20013;DHT22;76844;42.852;23.042;2024-03-22T14:36:35;15.30;31.00
20013;DHT22;76844;42.852;23.042;2024-03-22T14:39:02;15.10;30.90
20013;DHT22;76844;42.852;23.042;2024-03-22T14:41:35;15.10;31.40
20013;DHT22;76844;42.852;23.042;2024-03-22T14:44:02;15.20;31.90
20013;DHT22;76844;42.852;23.042;2024-03-22T14:46:31;15.20;31.50
20013;DHT22;76844;42.852;23.042;2024-03-22T14:48:59;15.20;31.40
20013;DHT22;76844;42.852;23.042;2024-03-22T14:51:27;15.20;31.30
20013;DHT22;76844;42.852;23.042;2024-03-22T14:53:54;15.10;31.60
20013;DHT22;76844;42.852;23.042;2024-03-22T14:56:24;15.10;31.70
20013;DHT22;76844;42.852;23.042;2024-03-22T14:58:53;15.20;32.00
20013;DHT22;76844;42.852;23.042;2024-03-22T15:01:24;15.30;32.00
20013;DHT22;76844;42.852;23.042;2024-03-22T15:03:53;15.50;31.70
20013;DHT22;76844;42.852;23.042;2024-03-22T15:06:22;15.40;31.20
20013;DHT22;76844;42.852;23.042;2024-03-22T15:08:49;15.20;31.20
20013;DHT22;76844;42.852;23.042;2024-03-22T15:11:17;15.30;31.30
20013;DHT22;76844;42.852;23.042;2024-03-22T15:13:46;15.20;30.90
20013;DHT22;76844;42.852;23.042;2024-03-22T15:16:16;15.20;31.30
20013;DHT22;76844;42.852;23.042;2024-03-22T15:18:45;15.00;31.60
20013;DHT22;76844;42.852;23.042;2024-03-22T15:21:13;14.90;31.80
20013;DHT22;76844;42.852;23.042;2024-03-22T15:23:42;14.70;31.80
20013;DHT22;76844;42.852;23.042;2024-03-22T15:26:10;14.60;32.30
20013;DHT22;76844;42.852;23.042;2024-03-22T15:28:39;14.60;32.20
20013;DHT22;76844;42.852;23.042;2024-03-22T15:31:08;14.60;32.50